Time;durP1;ratioP1;P1;durP2;ratioP2;P2;SDS_P1;SDS_P2;PMS_P1;PMS_P2;Temp;Humidity;BMP_temperature;BMP_pressure;BME280_temperature;BME280_humidity;BME280_pressure;Samples;Min_cycle;Max_cycle;Signal;HPM_P1;HPM_P2
2021/07/26 00:00:39;;;;;;;9.15;6.10;;;;;;;;;;5072088;28;20056;-35
2021/07/26 00:03:04;;;;;;;10.25;6.22;;;;;;;;;;5087641;28;20028;-35
2021/07/26 00:05:30;;;;;;;9.32;5.47;;;;;;;;;;5072097;28;20012;-35
2021/07/26 00:07:55;;;;;;;10.15;5.53;;;;;;;;;;5072107;28;20032;-35
2021/07/26 00:10:21;;;;;;;7.88;5.38;;;;;;;;;;5071872;28;20028;-35
2021/07/26 00:12:46;;;;;;;9.90;6.10;;;;;;;;;;5072080;28;20029;-35
2021/07/26 00:15:11;;;;;;;9.43;5.28;;;;;;;;;;5072244;28;20020;-36
2021/07/26 00:17:37;;;;;;;17.80;5.22;;;;;;;;;;5073599;28;20473;-35
2021/07/26 00:20:03;;;;;;;9.95;5.45;;;;;;;;;;5076358;28;20458;-35
2021/07/26 00:22:28;;;;;;;9.32;5.68;;;;;;;;;;5076031;28;20430;-35
2021/07/26 00:24:53;;;;;;;9.48;5.40;;;;;;;;;;5076269;28;20450;-35
2021/07/26 00:27:19;;;;;;;8.65;4.85;;;;;;;;;;5075793;28;20119;-36
2021/07/26 00:29:44;;;;;;;9.82;5.97;;;;;;;;;;5091351;28;20103;-35
2021/07/26 00:32:09;;;;;;;12.25;6.28;;;;;;;;;;5075589;28;20532;-36
2021/07/26 00:34:35;;;;;;;10.63;6.03;;;;;;;;;;5075625;28;20021;-35
2021/07/26 00:37:04;;;;;;;9.88;5.50;;;;;;;;;;5075609;28;20058;-35
2021/07/26 00:39:30;;;;;;;8.18;5.30;;;;;;;;;;5075618;28;20104;-35
2021/07/26 00:41:56;;;;;;;8.35;5.53;;;;;;;;;;5075783;28;20050;-35
2021/07/26 00:44:22;;;;;;;9.65;6.18;;;;;;;;;;5075331;28;20107;-36
2021/07/26 00:46:49;;;;;;;10.38;6.07;;;;;;;;;;5075452;28;20109;-36
2021/07/26 00:49:15;;;;;;;10.55;5.72;;;;;;;;;;5075801;28;20024;-35
2021/07/26 00:51:42;;;;;;;8.30;5.47;;;;;;;;;;5075199;28;20406;-35
2021/07/26 00:54:08;;;;;;;11.45;5.93;;;;;;;;;;5075333;28;20056;-35
2021/07/26 00:56:34;;;;;;;13.57;5.65;;;;;;;;;;5075290;28;20442;-36
2021/07/26 00:58:59;;;;;;;7.13;5.07;;;;;;;;;;5075123;28;20107;-36
2021/07/26 01:01:25;;;;;;;11.48;5.72;;;;;;;;;;5075453;28;20025;-36
2021/07/26 01:03:50;;;;;;;11.38;5.50;;;;;;;;;;5075523;28;20020;-36
2021/07/26 01:06:16;;;;;;;14.75;6.28;;;;;;;;;;5074967;28;20028;-36
2021/07/26 01:08:41;;;;;;;8.80;5.65;;;;;;;;;;5075150;28;20023;-36
2021/07/26 01:11:06;;;;;;;7.43;5.25;;;;;;;;;;5075256;28;20037;-37
2021/07/26 01:13:32;;;;;;;8.15;5.32;;;;;;;;;;5075153;28;20390;-36
2021/07/26 01:15:58;;;;;;;9.02;5.97;;;;;;;;;;5073794;28;20044;-36
2021/07/26 01:18:24;;;;;;;9.95;5.35;;;;;;;;;;5074994;28;20023;-36
2021/07/26 01:21:05;;;;;;;9.10;5.50;;;;;;;;;;5073640;28;20032;-36
2021/07/26 01:23:31;;;;;;;6.05;5.15;;;;;;;;;;5074663;28;20027;-36
2021/07/26 01:25:57;;;;;;;6.43;5.00;;;;;;;;;;5074762;28;20037;-36
2021/07/26 01:28:24;;;;;;;10.93;6.60;;;;;;;;;;5074019;28;20025;-37
2021/07/26 01:30:49;;;;;;;9.13;5.80;;;;;;;;;;5074903;28;20033;-35
2021/07/26 01:33:16;;;;;;;10.65;5.15;;;;;;;;;;5074453;28;20112;-35
2021/07/26 01:35:41;;;;;;;10.30;6.20;;;;;;;;;;5074855;28;20028;-35
2021/07/26 01:38:07;;;;;;;9.98;5.50;;;;;;;;;;5074908;28;20471;-36
2021/07/26 01:40:34;;;;;;;9.38;6.00;;;;;;;;;;5074392;28;20020;-35
2021/07/26 01:43:03;;;;;;;7.97;6.53;;;;;;;;;;5074619;28;20024;-35
2021/07/26 01:45:30;;;;;;;8.60;5.10;;;;;;;;;;5074646;28;20020;-35
2021/07/26 01:48:01;;;;;;;10.02;5.47;;;;;;;;;;5074268;28;20036;-35
2021/07/26 01:50:28;;;;;;;9.40;5.72;;;;;;;;;;5073960;28;20086;-36
2021/07/26 01:52:53;;;;;;;11.18;5.65;;;;;;;;;;5074493;28;20032;-35
2021/07/26 01:55:19;;;;;;;10.95;5.95;;;;;;;;;;5073418;28;20482;-35
2021/07/26 01:57:44;;;;;;;8.13;5.50;;;;;;;;;;5074536;28;20429;-35
2021/07/26 02:00:10;;;;;;;14.98;4.60;;;;;;;;;;5074398;28;20523;-35
2021/07/26 02:02:35;;;;;;;9.65;5.70;;;;;;;;;;5074201;28;20095;-36
2021/07/26 02:05:00;;;;;;;8.10;5.35;;;;;;;;;;5074111;28;20029;-35
2021/07/26 02:07:26;;;;;;;14.02;5.35;;;;;;;;;;5073920;28;20375;-35
2021/07/26 02:09:51;;;;;;;7.63;5.55;;;;;;;;;;5074127;28;20086;-35
2021/07/26 02:12:17;;;;;;;9.85;5.63;;;;;;;;;;5073750;28;20075;-35
2021/07/26 02:14:42;;;;;;;10.35;6.00;;;;;;;;;;5073886;28;20067;-36
2021/07/26 02:17:07;;;;;;;8.65;5.13;;;;;;;;;;5089684;28;20149;-38
2021/07/26 02:19:33;;;;;;;10.00;4.90;;;;;;;;;;5073957;28;20082;-35
2021/07/26 02:21:59;;;;;;;9.52;5.22;;;;;;;;;;5073719;28;20028;-35
2021/07/26 02:24:24;;;;;;;6.90;5.25;;;;;;;;;;5073676;28;20034;-36
2021/07/26 02:26:49;;;;;;;9.48;4.78;;;;;;;;;;5073737;28;20091;-35
2021/07/26 02:29:15;;;;;;;10.05;5.18;;;;;;;;;;5055643;28;20562;-35
2021/07/26 02:31:40;;;;;;;14.23;5.88;;;;;;;;;;5073239;28;20032;-36
2021/07/26 02:34:06;;;;;;;10.23;5.38;;;;;;;;;;5073472;28;20028;-36
2021/07/26 02:36:31;;;;;;;7.85;5.63;;;;;;;;;;5073403;28;20025;-35
2021/07/26 02:38:56;;;;;;;13.52;5.47;;;;;;;;;;5073124;28;20110;-36
2021/07/26 02:41:22;;;;;;;6.70;5.22;;;;;;;;;;5072513;28;20017;-36
2021/07/26 02:43:47;;;;;;;11.27;5.97;;;;;;;;;;5073190;28;20056;-35
2021/07/26 02:46:12;;;;;;;8.30;5.03;;;;;;;;;;5073137;28;20016;-36
2021/07/26 02:48:38;;;;;;;9.73;5.35;;;;;;;;;;5073134;28;20222;-35
2021/07/26 02:51:04;;;;;;;7.78;5.10;;;;;;;;;;5072802;28;20551;-35
2021/07/26 02:53:30;;;;;;;8.90;6.30;;;;;;;;;;5072836;28;20052;-36
2021/07/26 02:55:56;;;;;;;7.45;4.65;;;;;;;;;;5073321;28;20036;-36
2021/07/26 02:58:21;;;;;;;7.07;5.50;;;;;;;;;;5072901;28;20037;-35
2021/07/26 03:00:46;;;;;;;9.85;5.10;;;;;;;;;;5073072;28;20012;-35
2021/07/26 03:03:12;;;;;;;9.52;5.68;;;;;;;;;;5072896;28;20032;-35
2021/07/26 03:05:37;;;;;;;7.85;5.60;;;;;;;;;;5072784;28;20013;-36
2021/07/26 03:08:03;;;;;;;9.25;5.35;;;;;;;;;;5073104;28;20032;-35
2021/07/26 03:10:28;;;;;;;12.57;6.05;;;;;;;;;;5072891;28;20106;-35
2021/07/26 03:12:54;;;;;;;11.88;5.22;;;;;;;;;;5071811;28;20039;-35
2021/07/26 03:15:21;;;;;;;9.25;5.10;;;;;;;;;;5072897;28;20016;-36
2021/07/26 03:17:46;;;;;;;8.93;5.00;;;;;;;;;;5072748;28;20479;-35
2021/07/26 03:20:12;;;;;;;8.35;5.10;;;;;;;;;;5072736;28;20023;-35
2021/07/26 03:22:56;;;;;;;6.50;4.68;;;;;;;;;;5088059;28;20105;-36
2021/07/26 03:25:22;;;;;;;8.32;5.38;;;;;;;;;;5072465;28;20023;-35
2021/07/26 03:27:50;;;;;;;7.22;5.07;;;;;;;;;;5071243;28;20016;-35
2021/07/26 03:30:17;;;;;;;7.80;5.35;;;;;;;;;;5072446;28;20110;-35
2021/07/26 03:32:42;;;;;;;11.95;5.25;;;;;;;;;;5072677;28;20030;-36
2021/07/26 03:35:08;;;;;;;12.05;5.38;;;;;;;;;;5072736;28;20387;-35
2021/07/26 03:37:33;;;;;;;9.82;5.07;;;;;;;;;;5072303;28;20078;-36
2021/07/26 03:39:59;;;;;;;8.15;5.55;;;;;;;;;;5072782;28;20127;-36
2021/07/26 03:42:24;;;;;;;11.23;5.32;;;;;;;;;;5072248;28;20017;-35
2021/07/26 03:44:49;;;;;;;9.32;5.35;;;;;;;;;;5072310;28;20033;-35
2021/07/26 03:47:14;;;;;;;14.23;5.55;;;;;;;;;;5072446;28;20047;-35
2021/07/26 03:49:40;;;;;;;6.75;5.28;;;;;;;;;;5072249;28;20028;-35
2021/07/26 03:52:05;;;;;;;8.68;5.50;;;;;;;;;;5071766;28;20059;-35
2021/07/26 03:54:31;;;;;;;9.50;5.38;;;;;;;;;;5072213;28;20040;-36
2021/07/26 03:56:57;;;;;;;11.15;6.03;;;;;;;;;;5072138;28;20452;-35
2021/07/26 03:59:22;;;;;;;11.73;5.72;;;;;;;;;;5072393;28;20059;-35
2021/07/26 04:01:47;;;;;;;10.73;4.65;;;;;;;;;;5070946;28;20364;-35
2021/07/26 04:04:13;;;;;;;8.00;5.50;;;;;;;;;;5072120;28;20422;-35
2021/07/26 04:06:43;;;;;;;10.77;5.22;;;;;;;;;;5072113;28;20029;-36
2021/07/26 04:09:09;;;;;;;9.98;5.15;;;;;;;;;;5072320;28;20045;-35
2021/07/26 04:11:37;;;;;;;7.13;4.63;;;;;;;;;;5072011;28;20387;-36
2021/07/26 04:14:07;;;;;;;8.45;5.00;;;;;;;;;;5072086;28;20021;-37
2021/07/26 04:16:32;;;;;;;6.65;5.07;;;;;;;;;;5071994;28;20017;-37
2021/07/26 04:19:00;;;;;;;11.13;5.60;;;;;;;;;;5072262;28;20028;-37
2021/07/26 04:21:28;;;;;;;9.02;4.53;;;;;;;;;;5072131;28;20492;-35
2021/07/26 04:23:53;;;;;;;6.30;4.55;;;;;;;;;;5071917;28;20029;-34
2021/07/26 04:26:19;;;;;;;6.93;5.20;;;;;;;;;;5071832;28;20021;-34
2021/07/26 04:28:44;;;;;;;6.28;5.10;;;;;;;;;;5072160;28;20020;-35
2021/07/26 04:31:10;;;;;;;11.57;6.07;;;;;;;;;;5072106;28;20054;-35
2021/07/26 04:33:35;;;;;;;11.60;5.30;;;;;;;;;;5071988;28;20117;-35
2021/07/26 04:36:01;;;;;;;11.77;5.28;;;;;;;;;;5072223;28;20467;-35
2021/07/26 04:38:26;;;;;;;12.05;5.55;;;;;;;;;;5071979;28;20028;-35
2021/07/26 04:40:52;;;;;;;11.15;6.03;;;;;;;;;;5071843;28;20028;-35
2021/07/26 04:43:17;;;;;;;10.57;5.85;;;;;;;;;;5071802;28;20031;-35
2021/07/26 04:45:42;;;;;;;10.30;5.25;;;;;;;;;;5071888;28;20025;-36
2021/07/26 04:48:08;;;;;;;7.40;5.50;;;;;;;;;;5071747;28;20505;-35
2021/07/26 04:50:33;;;;;;;6.90;5.53;;;;;;;;;;5071670;28;20051;-34
2021/07/26 04:52:59;;;;;;;8.55;5.20;;;;;;;;;;5071530;28;20388;-35
2021/07/26 04:55:24;;;;;;;8.68;4.88;;;;;;;;;;5071669;28;20051;-35
2021/07/26 04:57:51;;;;;;;9.60;5.63;;;;;;;;;;5071704;28;20028;-35
2021/07/26 05:00:17;;;;;;;9.55;6.05;;;;;;;;;;5071849;28;20016;-35
2021/07/26 05:02:42;;;;;;;9.52;5.40;;;;;;;;;;5070430;28;20387;-35
2021/07/26 05:05:08;;;;;;;9.43;5.57;;;;;;;;;;5075214;28;20040;-36
2021/07/26 05:07:33;;;;;;;9.73;5.70;;;;;;;;;;5075304;28;20463;-35
2021/07/26 05:09:58;;;;;;;13.98;5.63;;;;;;;;;;5075428;28;20028;-35
2021/07/26 05:12:24;;;;;;;6.60;4.68;;;;;;;;;;5075128;28;20040;-35
2021/07/26 05:14:51;;;;;;;7.18;5.25;;;;;;;;;;5075263;28;20012;-35
2021/07/26 05:17:22;;;;;;;9.10;5.07;;;;;;;;;;5075006;28;20379;-34
2021/07/26 05:19:48;;;;;;;7.28;4.80;;;;;;;;;;5074875;28;20471;-34
2021/07/26 05:22:13;;;;;;;9.45;5.65;;;;;;;;;;5075010;28;20100;-34
2021/07/26 05:24:38;;;;;;;8.35;5.15;;;;;;;;;;5074741;28;20041;-35
2021/07/26 05:27:04;;;;;;;9.85;5.22;;;;;;;;;;5074933;28;20061;-34
2021/07/26 05:29:30;;;;;;;8.85;5.95;;;;;;;;;;5074476;28;20123;-34
2021/07/26 05:31:58;;;;;;;11.55;5.90;;;;;;;;;;5073361;28;20029;-35
2021/07/26 05:34:23;;;;;;;12.05;5.22;;;;;;;;;;5074588;28;20475;-34
2021/07/26 05:36:49;;;;;;;8.73;5.03;;;;;;;;;;5090162;28;20086;-34
2021/07/26 05:39:15;;;;;;;7.45;5.85;;;;;;;;;;5074619;28;20029;-34
2021/07/26 05:41:40;;;;;;;11.13;5.65;;;;;;;;;;5074695;28;20024;-37
2021/07/26 05:44:06;;;;;;;6.88;4.95;;;;;;;;;;5074677;28;20094;-37
2021/07/26 05:46:31;;;;;;;12.30;5.97;;;;;;;;;;5074370;28;20024;-35
2021/07/26 05:48:57;;;;;;;9.32;5.22;;;;;;;;;;5074347;28;20357;-34
2021/07/26 05:51:22;;;;;;;13.48;5.43;;;;;;;;;;5074169;28;20548;-35
2021/07/26 05:53:47;;;;;;;10.77;6.05;;;;;;;;;;5074555;28;20476;-36
2021/07/26 05:56:13;;;;;;;5.65;4.85;;;;;;;;;;5074324;28;20058;-35
2021/07/26 05:58:44;;;;;;;7.00;5.13;;;;;;;;;;5074308;28;20032;-35
2021/07/26 06:03:44;;;;;;;11.23;5.40;;;;;;;;;;5074044;28;20132;-35
2021/07/26 06:06:09;;;;;;;11.32;5.10;;;;;;;;;;5072813;28;20158;-35
2021/07/26 06:08:34;;;;;;;9.05;5.57;;;;;;;;;;5073903;28;20029;-35
2021/07/26 06:11:00;;;;;;;9.05;4.20;;;;;;;;;;5073874;28;20039;-35
2021/07/26 06:13:26;;;;;;;7.20;4.25;;;;;;;;;;5073768;28;20020;-35
2021/07/26 06:15:51;;;;;;;8.35;5.65;;;;;;;;;;5072891;28;20017;-35
2021/07/26 06:18:16;;;;;;;10.43;5.75;;;;;;;;;;5073799;28;20028;-35
2021/07/26 06:20:42;;;;;;;14.60;6.20;;;;;;;;;;5073749;28;20099;-35
2021/07/26 06:23:07;;;;;;;6.70;4.95;;;;;;;;;;5073980;28;20025;-35
2021/07/26 06:25:32;;;;;;;7.60;4.82;;;;;;;;;;5073512;28;20431;-36
2021/07/26 06:27:58;;;;;;;10.02;6.05;;;;;;;;;;5073678;28;20036;-38
2021/07/26 06:30:23;;;;;;;8.27;5.47;;;;;;;;;;5073627;28;20048;-35
2021/07/26 06:32:50;;;;;;;15.70;5.47;;;;;;;;;;5073459;28;20043;-35
2021/07/26 06:35:16;;;;;;;15.10;5.50;;;;;;;;;;5073751;28;20020;-36
2021/07/26 06:37:41;;;;;;;8.38;5.32;;;;;;;;;;5073205;28;20048;-35
2021/07/26 06:40:08;;;;;;;8.75;5.55;;;;;;;;;;5073345;28;20104;-35
2021/07/26 06:42:33;;;;;;;8.18;5.05;;;;;;;;;;5072248;28;20052;-35
2021/07/26 06:44:58;;;;;;;8.00;4.43;;;;;;;;;;5073542;28;20052;-35
2021/07/26 06:47:24;;;;;;;6.20;4.88;;;;;;;;;;5073159;28;20027;-35
2021/07/26 06:49:49;;;;;;;7.88;4.57;;;;;;;;;;5073111;28;20095;-36
2021/07/26 06:52:14;;;;;;;10.15;5.53;;;;;;;;;;5072863;28;20190;-35
2021/07/26 06:54:40;;;;;;;9.13;4.88;;;;;;;;;;5073014;28;20108;-35
2021/07/26 06:57:05;;;;;;;7.03;5.15;;;;;;;;;;5073329;28;20036;-36
2021/07/26 06:59:30;;;;;;;8.45;5.30;;;;;;;;;;5072934;28;20031;-35
2021/07/26 07:01:56;;;;;;;7.43;5.28;;;;;;;;;;5072915;28;20094;-35
2021/07/26 07:04:21;;;;;;;10.35;5.93;;;;;;;;;;5072771;28;20013;-35
2021/07/26 07:06:46;;;;;;;11.32;5.68;;;;;;;;;;5073144;28;20040;-35
2021/07/26 07:09:12;;;;;;;6.95;4.85;;;;;;;;;;5071510;28;20094;-36
2021/07/26 07:11:38;;;;;;;9.07;5.10;;;;;;;;;;5072711;28;20036;-36
2021/07/26 07:14:03;;;;;;;8.75;5.80;;;;;;;;;;5073110;28;20021;-36
2021/07/26 07:16:28;;;;;;;9.60;5.53;;;;;;;;;;5072545;28;20036;-35
2021/07/26 07:18:55;;;;;;;11.73;6.07;;;;;;;;;;5072996;28;20020;-36
2021/07/26 07:21:25;;;;;;;11.60;5.13;;;;;;;;;;5072888;28;20444;-36
2021/07/26 07:23:50;;;;;;;7.25;4.93;;;;;;;;;;5071304;28;20032;-36
2021/07/26 07:26:17;;;;;;;8.98;4.88;;;;;;;;;;5072160;28;20042;-36
2021/07/26 07:28:44;;;;;;;10.40;5.50;;;;;;;;;;5072750;28;20051;-36
2021/07/26 07:31:09;;;;;;;6.05;4.45;;;;;;;;;;5072652;28;20044;-35
2021/07/26 07:33:35;;;;;;;8.43;5.13;;;;;;;;;;5072447;28;20021;-36
2021/07/26 07:36:03;;;;;;;7.18;4.80;;;;;;;;;;5072484;28;20158;-36
2021/07/26 07:38:29;;;;;;;11.88;5.32;;;;;;;;;;5072354;28;20048;-36
2021/07/26 07:40:55;;;;;;;9.18;5.03;;;;;;;;;;5071088;28;20036;-36
2021/07/26 07:43:21;;;;;;;12.05;4.97;;;;;;;;;;5072336;28;20020;-36
2021/07/26 07:45:46;;;;;;;13.65;5.32;;;;;;;;;;5072244;28;20025;-36
2021/07/26 07:48:12;;;;;;;8.00;4.93;;;;;;;;;;5072447;28;20017;-36
2021/07/26 07:50:37;;;;;;;9.45;5.28;;;;;;;;;;5072217;28;20076;-36
2021/07/26 07:53:03;;;;;;;8.13;4.57;;;;;;;;;;5072250;28;20360;-35
2021/07/26 07:55:29;;;;;;;11.35;5.80;;;;;;;;;;5072515;28;20029;-35
2021/07/26 07:57:54;;;;;;;7.30;5.35;;;;;;;;;;5072458;28;20074;-36
2021/07/26 08:00:21;;;;;;;11.27;4.60;;;;;;;;;;5072496;28;20059;-35
2021/07/26 08:02:46;;;;;;;7.75;4.57;;;;;;;;;;5072062;28;20021;-35
2021/07/26 08:05:12;;;;;;;6.97;4.15;;;;;;;;;;5072083;28;20029;-35
2021/07/26 08:07:37;;;;;;;9.23;4.18;;;;;;;;;;5072453;28;20374;-35
2021/07/26 08:10:04;;;;;;;8.25;4.13;;;;;;;;;;5072404;28;20475;-35
2021/07/26 08:12:29;;;;;;;10.40;4.45;;;;;;;;;;5071805;28;20063;-36
2021/07/26 08:14:54;;;;;;;8.23;4.72;;;;;;;;;;5072408;28;20059;-35
2021/07/26 08:17:20;;;;;;;13.25;4.38;;;;;;;;;;5072265;28;20017;-35
2021/07/26 08:19:45;;;;;;;7.20;4.20;;;;;;;;;;5071951;28;20406;-36
2021/07/26 08:22:10;;;;;;;6.63;4.13;;;;;;;;;;5071959;28;20017;-35
2021/07/26 08:24:36;;;;;;;7.65;4.32;;;;;;;;;;5072155;28;20029;-35
2021/07/26 08:27:01;;;;;;;15.25;4.57;;;;;;;;;;5071954;28;20508;-35
2021/07/26 08:29:27;;;;;;;9.77;4.50;;;;;;;;;;5071858;28;20024;-35
2021/07/26 08:31:52;;;;;;;7.80;3.80;;;;;;;;;;5072060;28;20032;-35
2021/07/26 08:34:18;;;;;;;7.43;4.93;;;;;;;;;;5072150;28;20467;-35
2021/07/26 08:36:43;;;;;;;10.85;3.92;;;;;;;;;;5070453;28;20438;-35
2021/07/26 08:39:09;;;;;;;7.22;5.00;;;;;;;;;;5074366;28;20534;-35
2021/07/26 08:41:34;;;;;;;9.38;4.90;;;;;;;;;;5075500;28;20406;-35
2021/07/26 08:44:00;;;;;;;7.03;4.55;;;;;;;;;;5075863;28;20035;-35
2021/07/26 08:46:25;;;;;;;7.32;3.72;;;;;;;;;;5075542;28;20379;-36
2021/07/26 08:48:50;;;;;;;13.68;4.68;;;;;;;;;;5075588;28;20471;-35
2021/07/26 08:51:18;;;;;;;10.07;4.72;;;;;;;;;;5075093;28;20099;-35
2021/07/26 08:53:44;;;;;;;13.77;4.15;;;;;;;;;;5075332;28;20502;-35
2021/07/26 08:56:09;;;;;;;7.07;4.82;;;;;;;;;;5075537;28;20025;-36
2021/07/26 08:58:39;;;;;;;6.93;4.25;;;;;;;;;;5075281;28;20016;-35
2021/07/26 09:01:05;;;;;;;8.93;4.15;;;;;;;;;;5075236;28;20608;-35
2021/07/26 09:03:30;;;;;;;7.32;4.85;;;;;;;;;;5075071;28;20492;-35
2021/07/26 09:05:56;;;;;;;10.70;4.13;;;;;;;;;;5075258;28;20017;-35
2021/07/26 09:08:21;;;;;;;11.20;4.95;;;;;;;;;;5075414;28;20029;-35
2021/07/26 09:10:46;;;;;;;10.13;4.88;;;;;;;;;;5075258;28;20185;-35
2021/07/26 09:13:12;;;;;;;8.85;4.72;;;;;;;;;;5075303;28;20090;-36
2021/07/26 09:15:40;;;;;;;6.97;4.00;;;;;;;;;;5075323;28;20027;-35
2021/07/26 09:18:06;;;;;;;7.72;4.68;;;;;;;;;;5075288;28;20036;-35
2021/07/26 09:20:33;;;;;;;5.82;4.68;;;;;;;;;;5074852;28;20017;-35
2021/07/26 09:23:08;;;;;;;6.07;3.85;;;;;;;;;;5074800;28;20117;-35
2021/07/26 09:25:34;;;;;;;11.07;4.68;;;;;;;;;;5075018;28;20052;-35
2021/07/26 09:28:11;;;;;;;11.85;4.00;;;;;;;;;;5075150;28;20383;-35
2021/07/26 09:30:37;;;;;;;6.00;4.10;;;;;;;;;;5074545;28;20495;-35
2021/07/26 09:33:03;;;;;;;9.13;4.60;;;;;;;;;;5074943;28;20103;-35
2021/07/26 09:35:28;;;;;;;8.00;4.60;;;;;;;;;;5073421;28;20020;-36
2021/07/26 09:37:58;;;;;;;7.82;4.72;;;;;;;;;;5074622;28;20482;-36
2021/07/26 09:40:24;;;;;;;10.75;5.07;;;;;;;;;;5074902;28;20032;-35
2021/07/26 09:42:50;;;;;;;9.05;4.10;;;;;;;;;;5074763;28;20020;-35
2021/07/26 09:45:20;;;;;;;7.65;3.95;;;;;;;;;;5074738;28;20189;-36
2021/07/26 09:48:03;;;;;;;8.13;3.97;;;;;;;;;;5074624;28;20021;-35
2021/07/26 09:50:38;;;;;;;7.97;3.90;;;;;;;;;;5073950;28;20108;-35
2021/07/26 09:53:32;;;;;;;8.00;3.85;;;;;;;;;;5074275;28;20537;-36
2021/07/26 09:55:59;;;;;;;6.15;4.03;;;;;;;;;;5076962;28;20383;-36
2021/07/26 09:58:40;;;;;;;11.02;4.45;;;;;;;;;;5074462;28;20386;-36
2021/07/26 10:01:07;;;;;;;8.55;3.80;;;;;;;;;;5089664;28;20451;-36
2021/07/26 10:03:32;;;;;;;10.05;3.83;;;;;;;;;;5074390;28;20016;-36
2021/07/26 10:05:59;;;;;;;9.20;3.33;;;;;;;;;;5074385;28;20090;-36
2021/07/26 10:08:25;;;;;;;7.63;3.65;;;;;;;;;;5073861;28;20058;-35
2021/07/26 10:10:51;;;;;;;6.45;3.60;;;;;;;;;;5074219;28;20036;-35
2021/07/26 10:13:18;;;;;;;8.68;3.33;;;;;;;;;;5073752;28;20017;-35
2021/07/26 10:15:43;;;;;;;13.00;3.50;;;;;;;;;;5073933;28;20035;-36
2021/07/26 10:18:09;;;;;;;6.60;3.05;;;;;;;;;;5073852;28;20021;-35
2021/07/26 10:20:36;;;;;;;8.82;2.88;;;;;;;;;;5073900;28;20032;-34
2021/07/26 10:23:08;;;;;;;9.45;3.75;;;;;;;;;;5073704;28;20048;-35
2021/07/26 10:25:36;;;;;;;12.40;3.72;;;;;;;;;;5073870;28;20051;-35
2021/07/26 10:28:04;;;;;;;5.40;3.13;;;;;;;;;;5073666;28;20020;-35
2021/07/26 10:30:37;;;;;;;6.22;2.88;;;;;;;;;;5073627;28;20043;-35
2021/07/26 10:33:03;;;;;;;9.50;4.28;;;;;;;;;;5073440;28;20036;-36
2021/07/26 10:35:47;;;;;;;5.35;2.72;;;;;;;;;;5073335;28;20027;-36
2021/07/26 10:38:13;;;;;;;8.60;3.30;;;;;;;;;;5073463;28;20107;-37
2021/07/26 10:40:39;;;;;;;9.02;3.75;;;;;;;;;;5071582;28;20116;-36
2021/07/26 10:43:05;;;;;;;8.45;3.42;;;;;;;;;;5073504;28;20025;-36
2021/07/26 10:45:33;;;;;;;11.02;3.45;;;;;;;;;;5073233;28;20639;-36
2021/07/26 10:48:17;;;;;;;10.20;3.30;;;;;;;;;;5073528;28;20427;-36
2021/07/26 10:50:44;;;;;;;6.03;2.83;;;;;;;;;;5072873;28;20045;-36
2021/07/26 10:53:10;;;;;;;13.85;3.55;;;;;;;;;;5072987;28;20021;-36
2021/07/26 10:55:54;;;;;;;11.80;3.92;;;;;;;;;;5073014;28;20035;-35
2021/07/26 10:58:38;;;;;;;15.90;4.40;;;;;;;;;;5073061;28;20055;-35
2021/07/26 11:01:22;;;;;;;9.32;3.80;;;;;;;;;;5072192;28;20029;-36
2021/07/26 11:03:54;;;;;;;9.82;3.25;;;;;;;;;;5072847;28;20035;-37
2021/07/26 11:06:35;;;;;;;7.25;4.00;;;;;;;;;;5073117;28;20032;-36
2021/07/26 11:09:19;;;;;;;6.13;2.67;;;;;;;;;;5072823;28;20036;-35
2021/07/26 11:11:45;;;;;;;5.97;3.40;;;;;;;;;;5072525;28;20037;-36
2021/07/26 11:14:12;;;;;;;9.45;2.67;;;;;;;;;;5072786;28;20027;-36
2021/07/26 11:16:54;;;;;;;8.95;3.30;;;;;;;;;;5072738;28;20036;-36
2021/07/26 11:19:29;;;;;;;4.65;2.45;;;;;;;;;;5072649;28;20033;-36
2021/07/26 11:21:54;;;;;;;4.22;2.35;;;;;;;;;;5072918;28;20040;-36
2021/07/26 11:24:38;;;;;;;5.43;2.80;;;;;;;;;;5072871;28;20048;-35
2021/07/26 11:27:04;;;;;;;7.45;2.80;;;;;;;;;;5072932;28;20024;-36
2021/07/26 11:29:30;;;;;;;6.60;3.47;;;;;;;;;;5072484;28;20458;-35
2021/07/26 11:31:57;;;;;;;5.68;3.28;;;;;;;;;;5072497;28;20040;-35
2021/07/26 11:34:23;;;;;;;4.82;2.30;;;;;;;;;;5072553;28;20017;-36
2021/07/26 11:37:03;;;;;;;1.90;1.70;;;;;;;;;;5072496;28;20025;-36
2021/07/26 11:39:42;;;;;;;12.90;3.85;;;;;;;;;;5072704;28;20079;-35
2021/07/26 11:42:07;;;;;;;5.80;2.85;;;;;;;;;;5070871;28;20427;-36
2021/07/26 11:44:33;;;;;;;9.93;4.47;;;;;;;;;;5054423;28;20023;-36
2021/07/26 11:46:59;;;;;;;11.88;4.15;;;;;;;;;;5072600;28;20093;-36
2021/07/26 11:52:59;;;;;;;8.43;3.70;;;;;;;;;;5062104;28;20498;-36
2021/07/26 12:06:59;;;;;;;4.50;2.90;;;;;;;;;;5072218;28;20418;-36
2021/07/26 12:09:25;;;;;;;7.60;2.95;;;;;;;;;;5072377;28;20429;-36
2021/07/26 12:11:51;;;;;;;9.43;3.08;;;;;;;;;;5072913;28;20028;-36
2021/07/26 12:14:21;;;;;;;12.60;3.17;;;;;;;;;;5076148;28;20460;-36
2021/07/26 12:16:57;;;;;;;10.60;3.85;;;;;;;;;;5076426;28;20036;-36
2021/07/26 12:19:22;;;;;;;7.45;2.10;;;;;;;;;;5076067;28;20024;-36
2021/07/26 12:21:48;;;;;;;4.97;3.00;;;;;;;;;;5076084;28;20016;-36
2021/07/26 12:24:13;;;;;;;4.38;2.45;;;;;;;;;;5074677;28;20589;-36
2021/07/26 12:26:58;;;;;;;8.60;3.35;;;;;;;;;;5075927;28;20020;-37
2021/07/26 12:29:26;;;;;;;11.38;3.22;;;;;;;;;;5091515;28;20036;-36
2021/07/26 12:32:01;;;;;;;5.15;2.03;;;;;;;;;;5075756;28;20468;-36
2021/07/26 12:34:26;;;;;;;6.80;3.55;;;;;;;;;;5075722;28;20052;-36
2021/07/26 12:36:56;;;;;;;6.68;2.85;;;;;;;;;;5075721;28;20055;-37
2021/07/26 12:39:34;;;;;;;7.28;3.08;;;;;;;;;;5075803;28;20020;-36
2021/07/26 12:42:19;;;;;;;9.13;3.47;;;;;;;;;;5075639;28;20089;-36
2021/07/26 12:44:44;;;;;;;11.85;3.72;;;;;;;;;;5074189;28;20059;-36
2021/07/26 12:47:25;;;;;;;3.83;2.38;;;;;;;;;;5075663;28;20044;-36
2021/07/26 12:49:51;;;;;;;14.07;3.80;;;;;;;;;;5075162;28;20032;-36
2021/07/26 12:52:17;;;;;;;5.00;2.75;;;;;;;;;;5073936;28;20105;-36
2021/07/26 12:54:43;;;;;;;7.97;3.03;;;;;;;;;;5074122;28;20426;-36
2021/07/26 12:57:09;;;;;;;9.23;3.63;;;;;;;;;;5075282;28;20036;-36
2021/07/26 12:59:34;;;;;;;7.93;2.60;;;;;;;;;;5074062;28;20029;-36
2021/07/26 13:02:00;;;;;;;13.18;3.88;;;;;;;;;;5075521;28;20450;-36
2021/07/26 13:04:25;;;;;;;9.80;3.22;;;;;;;;;;5075558;28;20029;-36
2021/07/26 13:06:51;;;;;;;5.50;2.17;;;;;;;;;;5075213;28;20532;-35
2021/07/26 13:09:16;;;;;;;7.15;4.07;;;;;;;;;;5075193;28;20032;-36
2021/07/26 13:11:42;;;;;;;4.00;0.85;;;;;;;;;;5074817;28;20032;-36
2021/07/26 13:14:07;;;;;;;5.25;2.80;;;;;;;;;;5075088;28;20035;-36
2021/07/26 13:16:33;;;;;;;7.90;2.45;;;;;;;;;;5073660;28;20016;-36
2021/07/26 13:18:59;;;;;;;10.52;3.20;;;;;;;;;;5075016;28;20040;-36
2021/07/26 13:21:24;;;;;;;8.10;3.17;;;;;;;;;;5074848;28;20017;-36
2021/07/26 13:23:49;;;;;;;15.00;3.88;;;;;;;;;;5074335;28;20043;-36
2021/07/26 13:26:15;;;;;;;8.63;3.15;;;;;;;;;;5074847;28;20100;-36
2021/07/26 13:28:40;;;;;;;15.88;3.10;;;;;;;;;;5074954;28;20035;-37
2021/07/26 13:31:06;;;;;;;6.55;1.75;;;;;;;;;;5073444;28;20039;-36
2021/07/26 13:33:31;;;;;;;11.13;3.15;;;;;;;;;;5074575;28;20052;-35
2021/07/26 13:35:56;;;;;;;14.95;3.63;;;;;;;;;;5075096;28;20104;-36
2021/07/26 13:38:22;;;;;;;9.70;3.30;;;;;;;;;;5074678;28;20485;-36
2021/07/26 13:40:47;;;;;;;9.65;3.13;;;;;;;;;;5074414;28;20063;-35
2021/07/26 13:43:13;;;;;;;1.38;1.02;;;;;;;;;;5074649;28;20037;-36
2021/07/26 13:45:39;;;;;;;10.15;2.63;;;;;;;;;;5074738;28;20062;-36
2021/07/26 13:48:07;;;;;;;3.80;3.00;;;;;;;;;;5074749;28;20376;-37
2021/07/26 13:50:33;;;;;;;12.35;2.25;;;;;;;;;;5074343;28;20009;-36
2021/07/26 13:52:59;;;;;;;7.78;3.70;;;;;;;;;;5074163;28;20400;-36
2021/07/26 13:55:25;;;;;;;7.10;3.00;;;;;;;;;;5074320;28;20020;-36
2021/07/26 13:57:50;;;;;;;7.47;2.85;;;;;;;;;;5074256;28;20035;-36
2021/07/26 14:00:17;;;;;;;8.60;2.60;;;;;;;;;;5074462;28;20020;-36
2021/07/26 14:02:43;;;;;;;7.05;2.88;;;;;;;;;;5074118;28;20028;-36
2021/07/26 14:05:09;;;;;;;14.82;3.63;;;;;;;;;;5074097;28;20024;-35
2021/07/26 14:07:34;;;;;;;7.93;3.28;;;;;;;;;;5089533;28;20438;-36
2021/07/26 14:09:59;;;;;;;7.18;2.63;;;;;;;;;;5074064;28;20082;-36
2021/07/26 14:12:25;;;;;;;5.90;2.25;;;;;;;;;;5073917;28;20119;-35
2021/07/26 14:14:51;;;;;;;13.00;3.85;;;;;;;;;;5073874;28;20092;-36
2021/07/26 14:17:16;;;;;;;15.23;3.63;;;;;;;;;;5073831;28;20032;-36
2021/07/26 14:19:44;;;;;;;5.43;1.67;;;;;;;;;;5073894;28;20021;-36
2021/07/26 14:22:09;;;;;;;6.95;3.10;;;;;;;;;;5073719;28;20115;-36
2021/07/26 14:24:34;;;;;;;4.38;3.35;;;;;;;;;;5073894;28;20376;-35
2021/07/26 14:27:01;;;;;;;9.15;3.47;;;;;;;;;;5073703;28;20386;-36
2021/07/26 14:29:27;;;;;;;8.77;2.83;;;;;;;;;;5073825;28;20076;-36
2021/07/26 14:31:53;;;;;;;13.73;3.85;;;;;;;;;;5073726;28;20131;-35
2021/07/26 14:34:18;;;;;;;10.00;3.05;;;;;;;;;;5073578;28;20013;-36
2021/07/26 14:36:43;;;;;;;4.90;3.40;;;;;;;;;;5073335;28;20040;-36
2021/07/26 14:39:09;;;;;;;8.80;2.70;;;;;;;;;;5073773;28;20020;-35
2021/07/26 14:41:34;;;;;;;14.00;4.72;;;;;;;;;;5073328;28;20486;-35
2021/07/26 14:44:00;;;;;;;10.98;3.25;;;;;;;;;;5073591;28;20048;-35
2021/07/26 14:46:26;;;;;;;14.10;4.53;;;;;;;;;;5073308;28;20111;-35
2021/07/26 14:48:54;;;;;;;11.68;3.78;;;;;;;;;;5073402;28;20020;-36
2021/07/26 14:51:20;;;;;;;8.07;3.53;;;;;;;;;;5072984;28;20094;-36
2021/07/26 14:53:45;;;;;;;10.50;3.25;;;;;;;;;;5073050;28;20049;-36